sensor_id;sensor_type;location;lat;lon;timestamp;P1;durP1;ratioP1;P2;durP2;ratioP2
66893;SDS011;53801;55.786;49.142;2022-10-22T00:00:33;3.47;;;0.80;;
66893;SDS011;53801;55.786;49.142;2022-10-22T00:05:33;5.00;;;1.20;;
66893;SDS011;53801;55.786;49.142;2022-10-22T00:07:59;4.00;;;0.90;;
66893;SDS011;53801;55.786;49.142;2022-10-22T00:10:24;4.32;;;0.80;;
66893;SDS011;53801;55.786;49.142;2022-10-22T00:13:07;3.08;;;0.90;;
66893;SDS011;53801;55.786;49.142;2022-10-22T00:15:32;8.23;;;0.97;;
66893;SDS011;53801;55.786;49.142;2022-10-22T00:17:58;3.55;;;0.70;;
66893;SDS011;53801;55.786;49.142;2022-10-22T00:20:23;6.97;;;0.90;;
66893;SDS011;53801;55.786;49.142;2022-10-22T00:22:49;5.03;;;1.00;;
66893;SDS011;53801;55.786;49.142;2022-10-22T00:25:16;5.00;;;1.10;;
66893;SDS011;53801;55.786;49.142;2022-10-22T00:27:41;2.10;;;0.73;;
66893;SDS011;53801;55.786;49.142;2022-10-22T00:30:07;2.83;;;0.80;;
66893;SDS011;53801;55.786;49.142;2022-10-22T00:32:32;3.03;;;0.80;;
66893;SDS011;53801;55.786;49.142;2022-10-22T00:34:58;4.07;;;0.60;;
66893;SDS011;53801;55.786;49.142;2022-10-22T00:37:23;4.80;;;0.75;;
66893;SDS011;53801;55.786;49.142;2022-10-22T00:39:48;2.63;;;0.67;;
66893;SDS011;53801;55.786;49.142;2022-10-22T00:42:16;3.30;;;0.80;;
66893;SDS011;53801;55.786;49.142;2022-10-22T00:47:32;3.03;;;0.73;;
66893;SDS011;53801;55.786;49.142;2022-10-22T00:49:59;4.60;;;0.90;;
66893;SDS011;53801;55.786;49.142;2022-10-22T00:52:25;10.30;;;1.10;;
66893;SDS011;53801;55.786;49.142;2022-10-22T00:54:51;4.27;;;1.00;;
66893;SDS011;53801;55.786;49.142;2022-10-22T00:57:17;4.63;;;0.80;;
66893;SDS011;53801;55.786;49.142;2022-10-22T00:59:42;2.40;;;0.60;;
66893;SDS011;53801;55.786;49.142;2022-10-22T01:02:08;2.03;;;0.53;;
66893;SDS011;53801;55.786;49.142;2022-10-22T01:04:33;4.65;;;0.80;;
66893;SDS011;53801;55.786;49.142;2022-10-22T01:06:59;3.30;;;0.50;;
66893;SDS011;53801;55.786;49.142;2022-10-22T01:17:32;5.35;;;0.65;;
66893;SDS011;53801;55.786;49.142;2022-10-22T01:20:03;3.03;;;0.77;;
66893;SDS011;53801;55.786;49.142;2022-10-22T01:30:15;6.28;;;0.70;;
66893;SDS011;53801;55.786;49.142;2022-10-22T01:32:46;6.47;;;0.50;;
66893;SDS011;53801;55.786;49.142;2022-10-22T01:37:48;3.72;;;0.70;;
66893;SDS011;53801;55.786;49.142;2022-10-22T01:40:15;2.67;;;0.57;;
66893;SDS011;53801;55.786;49.142;2022-10-22T01:45:16;6.77;;;0.80;;
66893;SDS011;53801;55.786;49.142;2022-10-22T01:52:46;5.97;;;0.70;;
66893;SDS011;53801;55.786;49.142;2022-10-22T01:57:43;3.00;;;0.60;;
66893;SDS011;53801;55.786;49.142;2022-10-22T02:00:13;3.35;;;0.70;;
66893;SDS011;53801;55.786;49.142;2022-10-22T02:07:03;4.82;;;0.73;;
66893;SDS011;53801;55.786;49.142;2022-10-22T02:09:30;2.63;;;0.60;;
66893;SDS011;53801;55.786;49.142;2022-10-22T02:11:56;5.57;;;0.70;;
66893;SDS011;53801;55.786;49.142;2022-10-22T02:14:22;6.47;;;0.73;;
66893;SDS011;53801;55.786;49.142;2022-10-22T02:16:49;3.30;;;0.68;;
66893;SDS011;53801;55.786;49.142;2022-10-22T02:19:17;4.03;;;1.00;;
66893;SDS011;53801;55.786;49.142;2022-10-22T02:21:44;2.50;;;0.70;;
66893;SDS011;53801;55.786;49.142;2022-10-22T02:24:09;5.32;;;1.02;;
66893;SDS011;53801;55.786;49.142;2022-10-22T02:26:39;3.90;;;0.93;;
66893;SDS011;53801;55.786;49.142;2022-10-22T02:29:24;4.38;;;0.68;;
66893;SDS011;53801;55.786;49.142;2022-10-22T02:31:53;7.60;;;2.07;;
66893;SDS011;53801;55.786;49.142;2022-10-22T02:34:20;4.32;;;0.85;;
66893;SDS011;53801;55.786;49.142;2022-10-22T02:36:47;2.50;;;0.68;;
66893;SDS011;53801;55.786;49.142;2022-10-22T02:39:13;4.10;;;0.90;;
66893;SDS011;53801;55.786;49.142;2022-10-22T02:41:39;3.03;;;1.02;;
66893;SDS011;53801;55.786;49.142;2022-10-22T02:44:08;5.57;;;1.00;;
66893;SDS011;53801;55.786;49.142;2022-10-22T02:46:42;4.50;;;1.13;;
66893;SDS011;53801;55.786;49.142;2022-10-22T02:49:08;4.00;;;0.90;;
66893;SDS011;53801;55.786;49.142;2022-10-22T02:51:33;7.38;;;1.20;;
66893;SDS011;53801;55.786;49.142;2022-10-22T02:53:59;4.73;;;1.40;;
66893;SDS011;53801;55.786;49.142;2022-10-22T02:56:24;4.07;;;1.60;;
66893;SDS011;53801;55.786;49.142;2022-10-22T02:58:49;6.53;;;1.40;;
66893;SDS011;53801;55.786;49.142;2022-10-22T03:04:05;4.30;;;1.38;;
66893;SDS011;53801;55.786;49.142;2022-10-22T03:06:38;7.43;;;1.38;;
66893;SDS011;53801;55.786;49.142;2022-10-22T03:09:03;10.70;;;2.53;;
66893;SDS011;53801;55.786;49.142;2022-10-22T03:11:28;8.32;;;2.63;;
66893;SDS011;53801;55.786;49.142;2022-10-22T03:13:54;7.95;;;2.75;;
66893;SDS011;53801;55.786;49.142;2022-10-22T03:16:19;10.73;;;2.57;;
66893;SDS011;53801;55.786;49.142;2022-10-22T03:18:44;5.73;;;2.23;;
66893;SDS011;53801;55.786;49.142;2022-10-22T03:21:19;10.90;;;2.90;;
66893;SDS011;53801;55.786;49.142;2022-10-22T03:23:45;9.88;;;2.65;;
66893;SDS011;53801;55.786;49.142;2022-10-22T03:26:11;14.37;;;2.60;;
66893;SDS011;53801;55.786;49.142;2022-10-22T03:28:37;9.40;;;2.40;;
66893;SDS011;53801;55.786;49.142;2022-10-22T03:31:03;10.10;;;2.47;;
66893;SDS011;53801;55.786;49.142;2022-10-22T03:33:28;12.13;;;2.50;;
66893;SDS011;53801;55.786;49.142;2022-10-22T03:38:21;6.35;;;2.25;;
66893;SDS011;53801;55.786;49.142;2022-10-22T03:40:47;15.77;;;3.00;;
66893;SDS011;53801;55.786;49.142;2022-10-22T03:43:12;11.20;;;2.55;;
66893;SDS011;53801;55.786;49.142;2022-10-22T03:45:38;8.03;;;2.57;;
66893;SDS011;53801;55.786;49.142;2022-10-22T03:48:12;16.50;;;3.30;;
66893;SDS011;53801;55.786;49.142;2022-10-22T03:50:37;14.43;;;3.00;;
66893;SDS011;53801;55.786;49.142;2022-10-22T03:53:03;10.30;;;2.30;;
66893;SDS011;53801;55.786;49.142;2022-10-22T03:55:28;8.77;;;2.73;;
66893;SDS011;53801;55.786;49.142;2022-10-22T03:57:54;15.05;;;2.97;;
66893;SDS011;53801;55.786;49.142;2022-10-22T04:00:19;6.37;;;1.60;;
66893;SDS011;53801;55.786;49.142;2022-10-22T04:02:44;15.40;;;2.57;;
66893;SDS011;53801;55.786;49.142;2022-10-22T04:05:10;14.83;;;1.57;;
66893;SDS011;53801;55.786;49.142;2022-10-22T04:10:23;6.30;;;1.60;;
66893;SDS011;53801;55.786;49.142;2022-10-22T04:12:49;6.80;;;1.80;;
66893;SDS011;53801;55.786;49.142;2022-10-22T04:15:14;12.80;;;2.50;;
66893;SDS011;53801;55.786;49.142;2022-10-22T04:17:55;9.40;;;1.65;;
66893;SDS011;53801;55.786;49.142;2022-10-22T04:20:21;12.37;;;1.67;;
66893;SDS011;53801;55.786;49.142;2022-10-22T04:22:46;11.27;;;1.87;;
66893;SDS011;53801;55.786;49.142;2022-10-22T04:25:11;10.20;;;2.03;;
66893;SDS011;53801;55.786;49.142;2022-10-22T04:27:37;7.22;;;1.73;;
66893;SDS011;53801;55.786;49.142;2022-10-22T04:30:03;9.73;;;1.80;;
66893;SDS011;53801;55.786;49.142;2022-10-22T04:38:06;26.10;;;3.25;;
66893;SDS011;53801;55.786;49.142;2022-10-22T04:43:20;6.57;;;2.10;;
66893;SDS011;53801;55.786;49.142;2022-10-22T04:45:46;12.67;;;2.70;;
66893;SDS011;53801;55.786;49.142;2022-10-22T04:48:11;10.63;;;3.03;;
66893;SDS011;53801;55.786;49.142;2022-10-22T04:50:36;12.33;;;2.60;;
66893;SDS011;53801;55.786;49.142;2022-10-22T04:53:02;18.50;;;3.20;;
66893;SDS011;53801;55.786;49.142;2022-10-22T04:55:27;15.35;;;2.30;;
66893;SDS011;53801;55.786;49.142;2022-10-22T04:57:53;14.33;;;2.53;;
66893;SDS011;53801;55.786;49.142;2022-10-22T05:00:18;11.97;;;2.60;;
66893;SDS011;53801;55.786;49.142;2022-10-22T05:02:47;11.00;;;2.60;;
66893;SDS011;53801;55.786;49.142;2022-10-22T05:05:12;11.15;;;2.80;;
66893;SDS011;53801;55.786;49.142;2022-10-22T05:07:38;16.70;;;2.40;;
66893;SDS011;53801;55.786;49.142;2022-10-22T05:10:03;7.63;;;2.10;;
66893;SDS011;53801;55.786;49.142;2022-10-22T05:12:29;9.73;;;2.37;;
66893;SDS011;53801;55.786;49.142;2022-10-22T05:14:55;9.38;;;2.40;;
66893;SDS011;53801;55.786;49.142;2022-10-22T05:17:20;13.07;;;2.73;;
66893;SDS011;53801;55.786;49.142;2022-10-22T05:19:45;7.33;;;2.33;;
66893;SDS011;53801;55.786;49.142;2022-10-22T05:22:11;11.60;;;2.83;;
66893;SDS011;53801;55.786;49.142;2022-10-22T05:24:36;6.60;;;2.08;;
66893;SDS011;53801;55.786;49.142;2022-10-22T05:27:02;7.40;;;2.23;;
66893;SDS011;53801;55.786;49.142;2022-10-22T05:29:27;8.02;;;2.60;;
66893;SDS011;53801;55.786;49.142;2022-10-22T05:31:53;16.60;;;3.10;;
66893;SDS011;53801;55.786;49.142;2022-10-22T05:34:18;10.87;;;3.00;;
66893;SDS011;53801;55.786;49.142;2022-10-22T05:36:44;8.63;;;3.37;;
66893;SDS011;53801;55.786;49.142;2022-10-22T05:39:09;11.73;;;3.17;;
66893;SDS011;53801;55.786;49.142;2022-10-22T05:41:35;10.47;;;3.70;;
66893;SDS011;53801;55.786;49.142;2022-10-22T05:44:01;7.83;;;3.33;;
66893;SDS011;53801;55.786;49.142;2022-10-22T05:46:28;14.55;;;3.60;;
66893;SDS011;53801;55.786;49.142;2022-10-22T05:51:19;7.13;;;3.37;;
66893;SDS011;53801;55.786;49.142;2022-10-22T05:53:45;12.40;;;4.20;;
66893;SDS011;53801;55.786;49.142;2022-10-22T05:56:12;11.48;;;4.00;;
66893;SDS011;53801;55.786;49.142;2022-10-22T05:58:38;7.28;;;3.70;;
66893;SDS011;53801;55.786;49.142;2022-10-22T06:01:04;11.80;;;4.20;;
66893;SDS011;53801;55.786;49.142;2022-10-22T06:03:29;22.20;;;5.10;;
66893;SDS011;53801;55.786;49.142;2022-10-22T06:05:56;14.95;;;5.00;;
66893;SDS011;53801;55.786;49.142;2022-10-22T06:08:23;7.57;;;4.20;;
66893;SDS011;53801;55.786;49.142;2022-10-22T06:10:48;5.30;;;4.10;;
66893;SDS011;53801;55.786;49.142;2022-10-22T06:13:14;20.17;;;15.00;;
66893;SDS011;53801;55.786;49.142;2022-10-22T06:15:39;9.20;;;4.80;;
66893;SDS011;53801;55.786;49.142;2022-10-22T06:18:04;8.17;;;4.13;;
66893;SDS011;53801;55.786;49.142;2022-10-22T06:20:30;9.07;;;4.20;;
66893;SDS011;53801;55.786;49.142;2022-10-22T06:22:57;7.40;;;4.47;;
66893;SDS011;53801;55.786;49.142;2022-10-22T06:25:23;7.60;;;4.30;;
66893;SDS011;53801;55.786;49.142;2022-10-22T06:27:48;6.23;;;4.20;;
66893;SDS011;53801;55.786;49.142;2022-10-22T06:30:15;9.13;;;4.70;;
66893;SDS011;53801;55.786;49.142;2022-10-22T06:32:41;9.43;;;4.97;;
66893;SDS011;53801;55.786;49.142;2022-10-22T06:35:06;10.25;;;5.10;;
66893;SDS011;53801;55.786;49.142;2022-10-22T06:37:32;10.80;;;4.57;;
66893;SDS011;53801;55.786;49.142;2022-10-22T06:39:57;14.60;;;5.70;;
66893;SDS011;53801;55.786;49.142;2022-10-22T06:42:22;16.67;;;5.23;;
66893;SDS011;53801;55.786;49.142;2022-10-22T06:44:48;9.60;;;4.40;;
66893;SDS011;53801;55.786;49.142;2022-10-22T06:47:13;11.98;;;5.78;;
66893;SDS011;53801;55.786;49.142;2022-10-22T06:49:38;11.07;;;5.18;;
66893;SDS011;53801;55.786;49.142;2022-10-22T06:52:04;11.50;;;4.47;;
66893;SDS011;53801;55.786;49.142;2022-10-22T06:54:29;7.57;;;5.00;;
66893;SDS011;53801;55.786;49.142;2022-10-22T06:56:55;13.80;;;7.60;;
66893;SDS011;53801;55.786;49.142;2022-10-22T06:59:20;19.93;;;7.20;;
66893;SDS011;53801;55.786;49.142;2022-10-22T07:01:45;12.80;;;5.10;;
66893;SDS011;53801;55.786;49.142;2022-10-22T07:04:11;8.52;;;4.50;;
66893;SDS011;53801;55.786;49.142;2022-10-22T07:06:36;4.90;;;2.03;;
66893;SDS011;53801;55.786;49.142;2022-10-22T07:09:01;8.00;;;4.07;;
66893;SDS011;53801;55.786;49.142;2022-10-22T07:11:28;6.13;;;4.10;;
66893;SDS011;53801;55.786;49.142;2022-10-22T07:13:54;8.15;;;3.70;;
66893;SDS011;53801;55.786;49.142;2022-10-22T07:16:20;5.25;;;3.72;;
66893;SDS011;53801;55.786;49.142;2022-10-22T07:18:45;9.03;;;3.50;;
66893;SDS011;53801;55.786;49.142;2022-10-22T07:21:12;11.97;;;3.53;;
66893;SDS011;53801;55.786;49.142;2022-10-22T07:23:38;10.93;;;4.40;;
66893;SDS011;53801;55.786;49.142;2022-10-22T07:26:04;4.70;;;3.17;;
66893;SDS011;53801;55.786;49.142;2022-10-22T07:28:31;11.60;;;5.13;;
66893;SDS011;53801;55.786;49.142;2022-10-22T07:30:57;11.23;;;5.47;;
66893;SDS011;53801;55.786;49.142;2022-10-22T07:33:23;5.57;;;3.58;;
66893;SDS011;53801;55.786;49.142;2022-10-22T07:35:48;11.75;;;3.03;;
66893;SDS011;53801;55.786;49.142;2022-10-22T07:38:16;7.47;;;3.10;;
66893;SDS011;53801;55.786;49.142;2022-10-22T07:40:41;3.33;;;2.65;;
66893;SDS011;53801;55.786;49.142;2022-10-22T07:43:07;6.13;;;3.50;;
66893;SDS011;53801;55.786;49.142;2022-10-22T07:45:32;5.77;;;3.23;;
66893;SDS011;53801;55.786;49.142;2022-10-22T07:48:00;8.20;;;3.28;;
66893;SDS011;53801;55.786;49.142;2022-10-22T07:50:26;11.07;;;3.40;;
66893;SDS011;53801;55.786;49.142;2022-10-22T07:52:51;4.35;;;3.08;;
66893;SDS011;53801;55.786;49.142;2022-10-22T07:55:17;18.45;;;5.47;;
66893;SDS011;53801;55.786;49.142;2022-10-22T07:57:42;9.60;;;3.93;;
66893;SDS011;53801;55.786;49.142;2022-10-22T08:00:10;7.27;;;2.90;;
66893;SDS011;53801;55.786;49.142;2022-10-22T08:02:45;8.05;;;2.80;;
66893;SDS011;53801;55.786;49.142;2022-10-22T08:05:11;3.83;;;3.00;;
66893;SDS011;53801;55.786;49.142;2022-10-22T08:07:37;4.30;;;2.60;;
66893;SDS011;53801;55.786;49.142;2022-10-22T08:10:03;7.25;;;2.90;;
66893;SDS011;53801;55.786;49.142;2022-10-22T08:12:28;8.60;;;3.30;;
66893;SDS011;53801;55.786;49.142;2022-10-22T08:14:54;8.63;;;2.70;;
66893;SDS011;53801;55.786;49.142;2022-10-22T08:17:19;12.20;;;2.83;;
66893;SDS011;53801;55.786;49.142;2022-10-22T08:19:44;6.35;;;2.28;;
66893;SDS011;53801;55.786;49.142;2022-10-22T08:22:10;5.22;;;2.33;;
66893;SDS011;53801;55.786;49.142;2022-10-22T08:24:35;4.27;;;2.10;;
66893;SDS011;53801;55.786;49.142;2022-10-22T08:27:00;5.50;;;1.90;;
66893;SDS011;53801;55.786;49.142;2022-10-22T08:29:26;5.07;;;2.60;;
66893;SDS011;53801;55.786;49.142;2022-10-22T08:31:52;19.60;;;2.75;;
66893;SDS011;53801;55.786;49.142;2022-10-22T08:34:17;4.85;;;1.90;;
66893;SDS011;53801;55.786;49.142;2022-10-22T08:36:43;7.07;;;2.40;;
66893;SDS011;53801;55.786;49.142;2022-10-22T08:39:08;7.53;;;2.60;;
66893;SDS011;53801;55.786;49.142;2022-10-22T08:41:35;7.60;;;3.30;;
66893;SDS011;53801;55.786;49.142;2022-10-22T08:44:07;6.78;;;2.63;;
66893;SDS011;53801;55.786;49.142;2022-10-22T08:47:20;9.48;;;2.67;;
66893;SDS011;53801;55.786;49.142;2022-10-22T08:49:26;8.02;;;3.10;;
66893;SDS011;53801;55.786;49.142;2022-10-22T08:51:53;10.85;;;3.28;;
66893;SDS011;53801;55.786;49.142;2022-10-22T09:00:00;4.80;;;2.40;;
66893;SDS011;53801;55.786;49.142;2022-10-22T09:05:08;7.50;;;3.13;;
66893;SDS011;53801;55.786;49.142;2022-10-22T09:07:41;7.87;;;2.90;;
66893;SDS011;53801;55.786;49.142;2022-10-22T09:10:07;17.40;;;10.07;;
66893;SDS011;53801;55.786;49.142;2022-10-22T09:12:33;8.02;;;3.92;;
66893;SDS011;53801;55.786;49.142;2022-10-22T09:14:59;3.47;;;2.33;;
66893;SDS011;53801;55.786;49.142;2022-10-22T09:17:28;4.07;;;2.00;;
66893;SDS011;53801;55.786;49.142;2022-10-22T09:22:45;12.35;;;3.00;;
66893;SDS011;53801;55.786;49.142;2022-10-22T09:25:19;12.80;;;3.13;;
66893;SDS011;53801;55.786;49.142;2022-10-22T09:27:44;5.82;;;3.15;;
66893;SDS011;53801;55.786;49.142;2022-10-22T09:30:12;7.30;;;3.10;;
66893;SDS011;53801;55.786;49.142;2022-10-22T09:32:39;10.38;;;2.75;;
66893;SDS011;53801;55.786;49.142;2022-10-22T09:35:04;21.57;;;4.10;;
66893;SDS011;53801;55.786;49.142;2022-10-22T09:37:33;9.03;;;3.10;;
66893;SDS011;53801;55.786;49.142;2022-10-22T09:40:03;7.18;;;3.42;;
66893;SDS011;53801;55.786;49.142;2022-10-22T09:42:39;6.47;;;3.10;;
66893;SDS011;53801;55.786;49.142;2022-10-22T09:45:05;8.77;;;3.45;;
66893;SDS011;53801;55.786;49.142;2022-10-22T10:05:26;13.65;;;3.50;;
66893;SDS011;53801;55.786;49.142;2022-10-22T10:26:17;4.95;;;2.85;;
66893;SDS011;53801;55.786;49.142;2022-10-22T10:53:40;9.47;;;2.57;;
66893;SDS011;53801;55.786;49.142;2022-10-22T11:03:43;6.95;;;1.55;;
66893;SDS011;53801;55.786;49.142;2022-10-22T11:06:11;8.70;;;2.20;;
66893;SDS011;53801;55.786;49.142;2022-10-22T11:27:00;5.72;;;1.92;;
66893;SDS011;53801;55.786;49.142;2022-10-22T11:29:28;6.63;;;1.15;;
66893;SDS011;53801;55.786;49.142;2022-10-22T11:34:35;3.78;;;1.42;;
66893;SDS011;53801;55.786;49.142;2022-10-22T11:37:03;5.45;;;1.40;;
66893;SDS011;53801;55.786;49.142;2022-10-22T11:42:35;6.35;;;1.45;;
66893;SDS011;53801;55.786;49.142;2022-10-22T11:47:34;5.93;;;1.15;;
66893;SDS011;53801;55.786;49.142;2022-10-22T11:53:02;7.00;;;1.55;;
66893;SDS011;53801;55.786;49.142;2022-10-22T12:00:51;6.20;;;1.20;;
66893;SDS011;53801;55.786;49.142;2022-10-22T12:03:18;5.20;;;1.27;;
66893;SDS011;53801;55.786;49.142;2022-10-22T12:05:44;5.97;;;1.23;;
66893;SDS011;53801;55.786;49.142;2022-10-22T12:08:16;6.05;;;1.80;;
66893;SDS011;53801;55.786;49.142;2022-10-22T12:13:18;8.45;;;1.63;;
66893;SDS011;53801;55.786;49.142;2022-10-22T12:15:50;5.33;;;1.47;;
66893;SDS011;53801;55.786;49.142;2022-10-22T12:18:16;6.00;;;1.30;;
66893;SDS011;53801;55.786;49.142;2022-10-22T12:20:48;11.95;;;1.60;;
66893;SDS011;53801;55.786;49.142;2022-10-22T12:23:14;12.07;;;2.28;;
66893;SDS011;53801;55.786;49.142;2022-10-22T12:25:42;4.55;;;1.60;;
66893;SDS011;53801;55.786;49.142;2022-10-22T12:28:09;11.97;;;1.90;;
66893;SDS011;53801;55.786;49.142;2022-10-22T12:30:35;7.83;;;2.07;;
66893;SDS011;53801;55.786;49.142;2022-10-22T12:33:02;7.30;;;1.80;;
66893;SDS011;53801;55.786;49.142;2022-10-22T12:35:31;5.87;;;1.70;;
66893;SDS011;53801;55.786;49.142;2022-10-22T12:37:59;6.78;;;1.55;;
66893;SDS011;53801;55.786;49.142;2022-10-22T12:40:25;7.50;;;1.60;;
66893;SDS011;53801;55.786;49.142;2022-10-22T12:42:52;7.72;;;1.80;;
66893;SDS011;53801;55.786;49.142;2022-10-22T12:50:46;7.25;;;1.67;;
66893;SDS011;53801;55.786;49.142;2022-10-22T12:53:17;9.20;;;1.88;;
66893;SDS011;53801;55.786;49.142;2022-10-22T12:55:47;7.40;;;1.63;;
66893;SDS011;53801;55.786;49.142;2022-10-22T12:58:18;7.63;;;1.60;;
66893;SDS011;53801;55.786;49.142;2022-10-22T13:00:44;9.90;;;1.63;;
66893;SDS011;53801;55.786;49.142;2022-10-22T13:05:46;5.53;;;1.52;;
66893;SDS011;53801;55.786;49.142;2022-10-22T13:08:16;6.78;;;1.45;;
66893;SDS011;53801;55.786;49.142;2022-10-22T13:10:48;13.38;;;2.17;;
66893;SDS011;53801;55.786;49.142;2022-10-22T13:13:29;4.90;;;1.40;;
66893;SDS011;53801;55.786;49.142;2022-10-22T13:16:11;7.18;;;1.50;;
66893;SDS011;53801;55.786;49.142;2022-10-22T13:18:36;9.48;;;1.70;;
66893;SDS011;53801;55.786;49.142;2022-10-22T13:21:02;8.10;;;1.30;;
66893;SDS011;53801;55.786;49.142;2022-10-22T13:23:29;5.90;;;1.80;;
66893;SDS011;53801;55.786;49.142;2022-10-22T13:28:35;27.27;;;2.47;;
66893;SDS011;53801;55.786;49.142;2022-10-22T13:31:01;9.82;;;1.70;;
66893;SDS011;53801;55.786;49.142;2022-10-22T13:33:36;6.32;;;1.77;;
66893;SDS011;53801;55.786;49.142;2022-10-22T13:36:02;7.67;;;1.53;;
66893;SDS011;53801;55.786;49.142;2022-10-22T13:38:28;8.63;;;1.67;;
66893;SDS011;53801;55.786;49.142;2022-10-22T13:40:54;7.35;;;1.70;;
66893;SDS011;53801;55.786;49.142;2022-10-22T13:43:20;8.00;;;1.60;;
66893;SDS011;53801;55.786;49.142;2022-10-22T13:45:46;6.78;;;1.58;;
66893;SDS011;53801;55.786;49.142;2022-10-22T13:48:16;5.73;;;1.57;;
66893;SDS011;53801;55.786;49.142;2022-10-22T13:50:46;14.57;;;2.17;;
66893;SDS011;53801;55.786;49.142;2022-10-22T13:53:14;7.65;;;2.08;;
66893;SDS011;53801;55.786;49.142;2022-10-22T13:55:42;7.80;;;1.67;;
66893;SDS011;53801;55.786;49.142;2022-10-22T13:58:10;7.75;;;1.63;;
66893;SDS011;53801;55.786;49.142;2022-10-22T14:00:36;9.03;;;1.83;;
66893;SDS011;53801;55.786;49.142;2022-10-22T14:03:02;7.40;;;1.90;;
66893;SDS011;53801;55.786;49.142;2022-10-22T14:05:28;7.90;;;2.20;;
66893;SDS011;53801;55.786;49.142;2022-10-22T14:07:54;12.73;;;2.37;;
66893;SDS011;53801;55.786;49.142;2022-10-22T14:10:22;8.73;;;2.63;;
66893;SDS011;53801;55.786;49.142;2022-10-22T14:12:48;8.43;;;2.85;;
66893;SDS011;53801;55.786;49.142;2022-10-22T14:15:15;11.45;;;4.78;;
66893;SDS011;53801;55.786;49.142;2022-10-22T14:17:42;10.13;;;3.70;;
66893;SDS011;53801;55.786;49.142;2022-10-22T14:20:15;11.43;;;3.33;;
66893;SDS011;53801;55.786;49.142;2022-10-22T14:22:43;12.48;;;3.45;;
66893;SDS011;53801;55.786;49.142;2022-10-22T14:25:11;6.95;;;2.40;;
66893;SDS011;53801;55.786;49.142;2022-10-22T14:38:24;13.13;;;2.63;;
66893;SDS011;53801;55.786;49.142;2022-10-22T14:40:50;7.55;;;2.20;;
66893;SDS011;53801;55.786;49.142;2022-10-22T14:46:24;9.98;;;2.13;;
66893;SDS011;53801;55.786;49.142;2022-10-22T14:48:50;7.80;;;2.13;;
66893;SDS011;53801;55.786;49.142;2022-10-22T14:57:20;11.90;;;3.92;;
66893;SDS011;53801;55.786;49.142;2022-10-22T14:59:46;13.52;;;3.55;;
66893;SDS011;53801;55.786;49.142;2022-10-22T15:02:11;5.33;;;2.27;;
66893;SDS011;53801;55.786;49.142;2022-10-22T15:04:38;19.85;;;4.32;;
66893;SDS011;53801;55.786;49.142;2022-10-22T15:09:52;35.35;;;5.90;;
66893;SDS011;53801;55.786;49.142;2022-10-22T15:12:17;28.40;;;4.60;;
66893;SDS011;53801;55.786;49.142;2022-10-22T15:14:44;15.25;;;4.45;;
66893;SDS011;53801;55.786;49.142;2022-10-22T15:17:10;13.40;;;3.33;;
66893;SDS011;53801;55.786;49.142;2022-10-22T15:19:35;19.20;;;3.40;;
66893;SDS011;53801;55.786;49.142;2022-10-22T15:22:01;20.13;;;3.20;;
66893;SDS011;53801;55.786;49.142;2022-10-22T15:24:26;17.40;;;3.60;;
66893;SDS011;53801;55.786;49.142;2022-10-22T15:26:52;13.63;;;3.03;;
66893;SDS011;53801;55.786;49.142;2022-10-22T15:29:18;12.80;;;2.85;;
66893;SDS011;53801;55.786;49.142;2022-10-22T15:31:45;21.35;;;4.15;;
66893;SDS011;53801;55.786;49.142;2022-10-22T15:34:20;21.40;;;4.83;;
66893;SDS011;53801;55.786;49.142;2022-10-22T15:39:24;15.65;;;5.20;;
66893;SDS011;53801;55.786;49.142;2022-10-22T15:41:54;24.92;;;4.88;;
66893;SDS011;53801;55.786;49.142;2022-10-22T15:44:21;17.38;;;5.18;;
66893;SDS011;53801;55.786;49.142;2022-10-22T15:46:55;29.50;;;7.07;;
66893;SDS011;53801;55.786;49.142;2022-10-22T15:49:22;23.85;;;4.57;;
66893;SDS011;53801;55.786;49.142;2022-10-22T15:51:47;25.58;;;5.63;;
66893;SDS011;53801;55.786;49.142;2022-10-22T15:54:22;20.37;;;3.90;;
66893;SDS011;53801;55.786;49.142;2022-10-22T15:56:47;17.13;;;4.10;;
66893;SDS011;53801;55.786;49.142;2022-10-22T15:59:13;23.50;;;3.63;;
66893;SDS011;53801;55.786;49.142;2022-10-22T16:01:39;23.98;;;5.85;;
66893;SDS011;53801;55.786;49.142;2022-10-22T16:04:05;21.35;;;4.97;;
66893;SDS011;53801;55.786;49.142;2022-10-22T16:06:38;27.80;;;8.33;;
66893;SDS011;53801;55.786;49.142;2022-10-22T16:09:08;31.25;;;9.05;;
66893;SDS011;53801;55.786;49.142;2022-10-22T16:11:33;33.55;;;9.95;;
66893;SDS011;53801;55.786;49.142;2022-10-22T16:13:59;34.50;;;12.27;;
66893;SDS011;53801;55.786;49.142;2022-10-22T16:16:25;36.07;;;12.40;;
66893;SDS011;53801;55.786;49.142;2022-10-22T16:18:51;42.90;;;12.70;;
66893;SDS011;53801;55.786;49.142;2022-10-22T16:21:19;40.42;;;13.65;;
66893;SDS011;53801;55.786;49.142;2022-10-22T16:23:45;45.40;;;12.95;;
66893;SDS011;53801;55.786;49.142;2022-10-22T16:26:11;42.67;;;12.40;;
66893;SDS011;53801;55.786;49.142;2022-10-22T16:28:38;36.40;;;12.82;;
66893;SDS011;53801;55.786;49.142;2022-10-22T16:31:04;36.57;;;12.60;;
66893;SDS011;53801;55.786;49.142;2022-10-22T16:33:30;34.40;;;12.77;;
66893;SDS011;53801;55.786;49.142;2022-10-22T16:35:55;40.93;;;12.53;;
66893;SDS011;53801;55.786;49.142;2022-10-22T16:38:21;33.33;;;11.80;;
66893;SDS011;53801;55.786;49.142;2022-10-22T16:40:46;35.15;;;12.68;;
66893;SDS011;53801;55.786;49.142;2022-10-22T16:43:11;29.53;;;11.37;;
66893;SDS011;53801;55.786;49.142;2022-10-22T16:45:40;34.83;;;11.90;;
66893;SDS011;53801;55.786;49.142;2022-10-22T16:48:13;45.30;;;12.63;;
66893;SDS011;53801;55.786;49.142;2022-10-22T16:50:39;31.25;;;10.52;;
66893;SDS011;53801;55.786;49.142;2022-10-22T16:53:04;29.90;;;10.67;;
66893;SDS011;53801;55.786;49.142;2022-10-22T16:55:31;30.10;;;10.90;;
66893;SDS011;53801;55.786;49.142;2022-10-22T16:57:59;24.52;;;9.98;;
66893;SDS011;53801;55.786;49.142;2022-10-22T17:00:24;32.10;;;10.00;;
66893;SDS011;53801;55.786;49.142;2022-10-22T17:02:51;37.73;;;10.20;;
66893;SDS011;53801;55.786;49.142;2022-10-22T17:05:17;34.00;;;10.40;;
66893;SDS011;53801;55.786;49.142;2022-10-22T17:07:42;26.70;;;9.73;;
66893;SDS011;53801;55.786;49.142;2022-10-22T17:10:08;32.22;;;9.45;;
66893;SDS011;53801;55.786;49.142;2022-10-22T17:12:34;29.47;;;10.80;;
66893;SDS011;53801;55.786;49.142;2022-10-22T17:15:00;30.10;;;10.47;;
66893;SDS011;53801;55.786;49.142;2022-10-22T17:17:26;27.00;;;9.70;;
66893;SDS011;53801;55.786;49.142;2022-10-22T17:22:29;24.58;;;7.95;;
66893;SDS011;53801;55.786;49.142;2022-10-22T17:42:03;23.45;;;8.20;;
66893;SDS011;53801;55.786;49.142;2022-10-22T18:07:03;23.17;;;7.47;;
66893;SDS011;53801;55.786;49.142;2022-10-22T18:46:36;16.17;;;5.80;;
66893;SDS011;53801;55.786;49.142;2022-10-22T19:46:13;7.23;;;2.40;;
66893;SDS011;53801;55.786;49.142;2022-10-22T19:56:24;9.98;;;2.97;;
66893;SDS011;53801;55.786;49.142;2022-10-22T20:15:35;13.67;;;2.73;;
66893;SDS011;53801;55.786;49.142;2022-10-22T20:50:06;6.70;;;2.40;;
66893;SDS011;53801;55.786;49.142;2022-10-22T21:37:20;8.27;;;2.90;;
66893;SDS011;53801;55.786;49.142;2022-10-22T21:52:51;10.85;;;3.17;;
66893;SDS011;53801;55.786;49.142;2022-10-22T22:34:55;13.73;;;3.72;;
66893;SDS011;53801;55.786;49.142;2022-10-22T23:11:58;7.50;;;2.80;;
66893;SDS011;53801;55.786;49.142;2022-10-22T23:20:28;6.90;;;1.90;;
